ADDS METAR Data INFO
IDs: Format: Raw Decoded Include TAF

Data at: 2335 UTC 25 Feb 2018

KGAD 252256Z AUTO 28003KT 10SM -RA FEW045 BKN055 OVC080 13/13 A3015 RMK AO2 SLP212 P0002 T01280128
KGAD 252156Z AUTO 00000KT 10SM -RA FEW035 OVC085 13/13 A3013 RMK AO2 SLP205 P0002 T01280128
KGAD 252111Z AUTO VRB05KT 10SM -RA SCT017 SCT033 OVC085 13/13 A3012 RMK AO2 P0001
KGAD 252046Z AUTO 30007KT 10SM -RA BKN015 OVC095 13/13 A3012 RMK AO2 PRESRR P0000
KGAD 251956Z AUTO VRB04KT 10SM -RA FEW009 OVC100 13/13 A3008 RMK AO2 SLP188 P0000 T01330128
KGAD 251944Z AUTO 29013KT 10SM -RA FEW009 BKN110 13/13 A3011 RMK AO2 PRESRR P0000
KGAD 251856Z AUTO 17004KT 10SM -RA SCT095 BKN110 13/12 A3008 RMK AO2 RAE20B40 SLP187 P0000 T01280122
KGAD 251756Z AUTO 15005KT 10SM -RA FEW007 BKN095 13/12 A3011 RMK AO2 SLP197 P0000 60018 T01280122 10133 20117 58016
KGAD 251656Z AUTO 17003KT 10SM -RA FEW090 BKN100 12/12 A3016 RMK AO2 SLP215 P0000 T01220117
KGAD 251556Z AUTO 17004KT 10SM -RA FEW035 BKN095 12/12 A3017 RMK AO2 RAB1457 SLP220 P0000 T01220117
KGAD 251456Z AUTO 21004KT 10SM BKN100 12/12 A3015 RMK AO2 RAE48 SLP213 P0001 60018 T01220117 51022
KGAD 251356Z AUTO 24006KT 10SM -RA BKN044 OVC050 12/12 A3013 RMK AO2 PRESRR SLP207 P0006 T01220122
KGAD 251256Z AUTO 26003KT 10SM -RA SCT037 BKN048 OVC060 12/11 A3011 RMK AO2 SLP198 P0011 T01220111
KGAD 251156Z AUTO 31005KT 7SM -RA FEW009 BKN032 OVC050 13/13 A3009 RMK AO2 SLP189 P0014 60068 70070 T01330133 10206 20133 53037
KGAD 251142Z AUTO 30010KT 7SM +RA FEW010 BKN030 OVC035 13/13 A3007 RMK AO2 P0012
KGAD 251124Z AUTO 29011KT 6SM +RA BR SCT009 BKN029 OVC050 14/14 A3006 RMK AO2 P0005
KGAD 251056Z AUTO 34009KT 8SM RA SCT006 OVC014 14/14 A3003 RMK AO2 SLP169 P0053 T01440144
KGAD 251041Z AUTO 35007KT 7SM RA FEW007 BKN011 OVC029 16/16 A3001 RMK AO2 P0049
KGAD 250956Z AUTO 30008KT 10SM -RA OVC018 20/19 A2998 RMK AO2 RAB42 SLP153 P0001 T02000189
KGAD 250856Z AUTO 20007KT 10SM OVC022 21/19 A2998 RMK AO2 RAB01E14 SLP150 P0000 60000 T02060189 58010
KGAD 250756Z AUTO 19008G15KT 10SM BKN022 BKN028 OVC085 21/18 A2999 RMK AO2 SLP154 T02060183
KGAD 250656Z AUTO 21009G14KT 10SM OVC022 21/18 A3000 RMK AO2 SLP158 T02060183
KGAD 250556Z AUTO 20009G15KT 10SM BKN024 21/18 A3001 RMK AO2 SLP160 60002 T02060178 10233 20172 402500156 56001
KGAD 250552Z AUTO 21010G16KT 10SM BKN026 20/18 A3001 RMK AO2 402500156
KGAD 250456Z AUTO 20006KT 10SM CLR 19/18 A3000 RMK AO2 SLP161 T01940178
KGAD 250356Z AUTO 00000KT 9SM CLR 17/17 A3001 RMK AO2 SLP161 T01720172
KGAD 250256Z AUTO 25004KT 10SM SCT070 OVC095 19/19 A3000 RMK AO2 RAE08B26E50 SLP160 P0001 60002 T01940189 53004
KGAD 250156Z AUTO VRB04G20KT 6SM +RA BR BKN039 BKN050 OVC060 19/19 A3000 RMK AO2 PK WND 24026/0146 RAB38 SLP158 P0001 T01890189
KGAD 250056Z AUTO 19004KT 10SM BKN065 23/17 A2999 RMK AO2 SLP155 T02280167
KGAD 242356Z AUTO 20004KT 10SM FEW050 BKN095 23/17 A2999 RMK AO2 SLP156 T02330167 10250 20233 55008
KGAD 242256Z AUTO 17008KT 10SM SCT050 SCT075 BKN110 24/17 A2998 RMK AO2 SLP152 T02390167
KGAD 242156Z AUTO VRB04KT 10SM BKN048 OVC055 24/16 A3001 RMK AO2 SLP160 T02390161
KGAD 242056Z AUTO 17008KT 10SM SCT044 OVC070 24/16 A3002 RMK AO2 SLP165 T02390161 56029
KGAD 241956Z AUTO 20011G17KT 10SM BKN040 BKN050 OVC080 24/16 A3004 RMK AO2 SLP171 T02440161
KGAD 241856Z AUTO 20010G18KT 10SM SCT038 BKN046 OVC070 24/17 A3007 RMK AO2 SLP180 T02390167
KGAD 241756Z AUTO 18007KT 10SM BKN038 OVC085 24/17 A3011 RMK AO2 SLP194 60000 T02390172 10239 20156 58022
KGAD 241714Z AUTO 23010KT 10SM SCT030 BKN038 OVC085 23/17 A3013 RMK AO2
KGAD 241656Z AUTO 21008KT 10SM BKN028 BKN055 OVC085 23/17 A3014 RMK AO2 SLP207 T02330172
KGAD 241649Z AUTO 24013G18KT 10SM BKN028 BKN055 OVC085 23/17 A3014 RMK AO2
KGAD 241556Z AUTO 21010KT 10SM BKN055 OVC085 22/18 A3016 RMK AO2 SLP212 T02220178
KGAD 241456Z AUTO 21008KT 10SM FEW019 SCT050 BKN120 21/18 A3017 RMK AO2 SLP216 60000 T02060178 52005
KGAD 241356Z AUTO 18004KT 10SM OVC080 19/18 A3017 RMK AO2 RAB36E54 SLP215 P0000 T01940178
KGAD 241256Z AUTO 19003KT 10SM SCT090 OVC120 18/17 A3016 RMK AO2 SLP213 T01830172
KGAD 241156Z AUTO 00000KT 10SM OVC110 16/16 A3016 RMK AO2 SLP212 T01560156 10172 20156 55000